Terminal Aerodrome Forecast
Issued by NWS Riverton, WY

Current Version | Previous Version | Text Only | Print | Product List | Glossary On
Versions: 1 2 3 4 5 6 7 8 9 10 11 12 13 14 15
000
FTUS45 KRIW 231700
TAFRIW
TAF
KRIW 231720Z 2318/2418 20005KT P6SM BKN080
     FM232000 21011KT P6SM VCSH SCT060 BKN120
     FM232200 26015G25KT P6SM VCSH BKN060
     FM240200 36012G20KT P6SM -SHRA BKN060
     FM240600 36010KT P6SM VCSH SCT015 BKN030
     FM241000 VRB04KT P6SM SCT015=

USA.gov is the U.S. government's official web portal to all federal, state and local government web resources and services.